Time;durP1;ratioP1;P1;durP2;ratioP2;P2;SDS_P1;SDS_P2;PMS_P1;PMS_P2;Temp;Humidity;BMP_temperature;BMP_pressure;BME280_temperature;BME280_humidity;BME280_pressure;Samples;Min_cycle;Max_cycle;Signal;HPM_P1;HPM_P2
2024/01/14 00:01:58;;;;;;;38.80;5.13;;;;;;;-144.74;100.00;63161.41;5029941;28;20124;-74
2024/01/14 00:04:24;;;;;;;42.65;4.68;;;;;;;-144.74;100.00;63161.41;5038910;28;20107;-75
2024/01/14 00:06:50;;;;;;;48.67;5.45;;;;;;;-144.74;100.00;63161.41;5041872;28;20033;-73
2024/01/14 00:09:18;;;;;;;45.92;5.18;;;;;;;-144.74;100.00;63161.41;5032985;28;20051;-73
2024/01/14 00:11:46;;;;;;;42.15;5.47;;;;;;;-144.74;100.00;63161.41;5041408;28;20052;-73
2024/01/14 00:14:12;;;;;;;44.33;4.65;;;;;;;-144.74;100.00;63161.41;5046945;28;20031;-75
2024/01/14 00:16:37;;;;;;;57.15;5.90;;;;;;;-144.74;100.00;63161.41;5047166;28;20033;-73
2024/01/14 00:19:25;;;;;;;38.63;5.93;;;;;;;-144.74;100.00;63161.41;5049526;28;20170;-74
2024/01/14 00:21:50;;;;;;;63.47;6.50;;;;;;;-144.74;100.00;63161.41;5026731;28;20045;-74
2024/01/14 00:24:16;;;;;;;47.65;5.45;;;;;;;-144.74;100.00;63161.41;5070720;28;20102;-73
2024/01/14 00:26:44;;;;;;;47.60;6.63;;;;;;;-144.74;100.00;63161.41;5050611;28;20036;-74
2024/01/14 00:29:10;;;;;;;52.65;5.32;;;;;;;-144.74;100.00;63161.41;5047282;28;20058;-73
2024/01/14 00:31:35;;;;;;;49.60;6.07;;;;;;;-144.74;100.00;63161.41;5058541;28;20108;-73
2024/01/14 00:34:00;;;;;;;39.03;5.43;;;;;;;-144.74;100.00;63161.41;5055794;28;20031;-73
2024/01/14 00:36:25;;;;;;;48.85;5.82;;;;;;;-144.74;100.00;63161.41;5045520;28;20061;-73
2024/01/14 00:38:51;;;;;;;55.10;6.72;;;;;;;-144.74;100.00;63161.41;5042340;28;20036;-73
2024/01/14 00:41:16;;;;;;;40.28;5.13;;;;;;;-144.74;100.00;63161.41;5037307;28;20057;-74
2024/01/14 00:43:41;;;;;;;39.08;5.55;;;;;;;-144.74;100.00;63161.41;5035723;28;20060;-74
2024/01/14 00:46:07;;;;;;;56.72;5.97;;;;;;;-144.74;100.00;63161.41;5041520;28;20095;-74
2024/01/14 00:48:32;;;;;;;50.30;5.80;;;;;;;-144.74;100.00;63161.41;5055421;28;20020;-72
2024/01/14 00:51:00;;;;;;;53.00;5.55;;;;;;;-144.74;100.00;63161.41;5047267;28;20036;-73
2024/01/14 00:53:29;;;;;;;56.53;6.25;;;;;;;-144.74;100.00;63161.41;5043521;28;20028;-73
2024/01/14 00:55:54;;;;;;;43.30;5.35;;;;;;;-144.74;100.00;63161.41;5038582;28;20058;-74
2024/01/14 00:58:19;;;;;;;44.20;5.50;;;;;;;-144.74;100.00;63161.41;5058550;28;20024;-72
2024/01/14 01:00:45;;;;;;;39.25;5.22;;;;;;;-144.74;100.00;63161.41;5043229;28;20039;-73
2024/01/14 01:03:10;;;;;;;56.55;6.72;;;;;;;-144.74;100.00;63161.41;5041588;28;20036;-73
2024/01/14 01:05:35;;;;;;;44.08;5.00;;;;;;;-144.74;100.00;63161.41;5043600;28;20024;-73
2024/01/14 01:08:02;;;;;;;56.95;5.32;;;;;;;-144.74;100.00;63161.41;5049971;28;20382;-73
2024/01/14 01:10:27;;;;;;;40.45;4.95;;;;;;;-144.74;100.00;63161.41;5066182;28;20027;-72
2024/01/14 01:12:52;;;;;;;40.55;4.65;;;;;;;-144.74;100.00;63161.41;5046233;28;20029;-74
2024/01/14 01:15:18;;;;;;;60.03;4.85;;;;;;;-144.74;100.00;63161.41;5043514;28;20036;-73
2024/01/14 01:17:43;;;;;;;62.72;6.80;;;;;;;-144.74;100.00;63161.41;5044272;28;20060;-73
2024/01/14 01:20:09;;;;;;;61.90;7.68;;;;;;;-144.74;100.00;63161.41;5044193;28;20033;-73
2024/01/14 01:22:34;;;;;;;43.58;5.10;;;;;;;-144.74;100.00;63161.41;5040772;28;20029;-73
2024/01/14 01:25:03;;;;;;;41.70;5.22;;;;;;;-144.74;100.00;63161.41;5043027;28;20087;-73
2024/01/14 01:27:29;;;;;;;55.47;7.32;;;;;;;-144.74;100.00;63161.41;5063438;28;20021;-73
2024/01/14 01:29:57;;;;;;;39.13;5.47;;;;;;;-144.74;100.00;63161.41;5048573;28;20032;-73
2024/01/14 01:32:23;;;;;;;44.25;7.03;;;;;;;-144.74;100.00;63161.41;5049994;28;20095;-73
2024/01/14 01:34:48;;;;;;;54.20;6.70;;;;;;;-144.74;100.00;63161.41;5064753;28;20111;-73
2024/01/14 01:37:14;;;;;;;42.97;6.10;;;;;;;-144.74;100.00;63161.41;5038188;28;20041;-73
2024/01/14 01:39:39;;;;;;;53.58;6.07;;;;;;;-144.74;100.00;63161.41;5042410;28;20051;-73
2024/01/14 01:42:05;;;;;;;50.30;6.97;;;;;;;-144.74;100.00;63161.41;5071673;28;20091;-73
2024/01/14 01:44:31;;;;;;;52.50;5.88;;;;;;;-144.74;100.00;63161.41;5056371;28;20396;-73
2024/01/14 01:46:56;;;;;;;56.75;6.00;;;;;;;-144.74;100.00;63161.41;5039358;28;20090;-73
2024/01/14 01:49:25;;;;;;;46.65;6.35;;;;;;;-144.74;100.00;63161.41;5047696;28;20032;-73
2024/01/14 01:51:51;;;;;;;32.63;5.95;;;;;;;-144.74;100.00;63161.41;5041567;28;20373;-73
2024/01/14 01:54:26;;;;;;;35.90;4.57;;;;;;;-144.74;100.00;63161.41;5050705;28;20024;-73
2024/01/14 01:56:53;;;;;;;72.20;8.27;;;;;;;-144.74;100.00;63161.41;5044250;28;20041;-73
2024/01/14 01:59:19;;;;;;;46.42;5.63;;;;;;;-144.74;100.00;63161.41;5044005;28;20024;-73
2024/01/14 02:01:46;;;;;;;32.80;4.57;;;;;;;-144.74;100.00;63161.41;5036186;28;20037;-73
2024/01/14 02:04:16;;;;;;;49.25;6.22;;;;;;;-144.74;100.00;63161.41;5049811;28;20056;-74
2024/01/14 02:06:42;;;;;;;32.53;3.83;;;;;;;-144.74;100.00;63161.41;5061515;28;20040;-73
2024/01/14 02:09:10;;;;;;;28.30;3.95;;;;;;;-144.74;100.00;63161.41;5037045;28;20044;-73
2024/01/14 02:11:36;;;;;;;20.85;2.75;;;;;;;-144.74;100.00;63161.41;5041526;28;20553;-73
2024/01/14 02:14:05;;;;;;;17.52;2.78;;;;;;;-144.74;100.00;63161.41;5048433;28;20028;-73
2024/01/14 02:16:31;;;;;;;26.42;3.20;;;;;;;-144.74;100.00;63161.41;5047086;28;20491;-74
2024/01/14 02:18:56;;;;;;;26.33;3.38;;;;;;;-144.74;100.00;63161.41;5041584;28;20048;-74
2024/01/14 02:21:32;;;;;;;15.25;3.20;;;;;;;-144.74;100.00;63161.41;5038213;28;20049;-74
2024/01/14 02:24:26;;;;;;;25.88;4.25;;;;;;;-144.74;100.00;63161.41;5047593;28;20028;-73
2024/01/14 02:26:54;;;;;;;17.75;3.38;;;;;;;-144.74;100.00;63161.41;5037104;28;20052;-74
2024/01/14 02:29:20;;;;;;;33.80;3.35;;;;;;;-144.74;100.00;63161.41;5043747;28;20033;-73
2024/01/14 02:31:45;;;;;;;23.80;2.80;;;;;;;-144.74;100.00;63161.41;5059369;28;20052;-74
2024/01/14 02:34:12;;;;;;;34.47;2.70;;;;;;;-144.74;100.00;63161.41;5042559;28;20074;-74
2024/01/14 02:36:37;;;;;;;22.13;2.95;;;;;;;-144.74;100.00;63161.41;5042980;28;20104;-73
2024/01/14 02:39:04;;;;;;;29.55;2.28;;;;;;;-144.74;100.00;63161.41;5039815;28;20115;-74
2024/01/14 02:41:30;;;;;;;21.85;2.83;;;;;;;-144.74;100.00;63161.41;5038220;28;20090;-73
2024/01/14 02:43:55;;;;;;;24.35;3.85;;;;;;;-144.74;100.00;63161.41;5044272;28;20029;-74
2024/01/14 02:46:21;;;;;;;24.40;2.97;;;;;;;-144.74;100.00;63161.41;5047471;28;20120;-74
2024/01/14 02:48:46;;;;;;;19.08;2.65;;;;;;;-144.74;100.00;63161.41;5035673;28;20019;-74
2024/01/14 02:51:11;;;;;;;16.45;2.35;;;;;;;-144.74;100.00;63161.41;5045322;28;20488;-73
2024/01/14 02:53:37;;;;;;;18.25;3.58;;;;;;;-144.74;100.00;63161.41;5039046;28;20049;-73
2024/01/14 02:56:03;;;;;;;31.95;3.05;;;;;;;-144.74;100.00;63161.41;5043433;28;20082;-73
2024/01/14 02:58:29;;;;;;;24.95;2.20;;;;;;;-144.74;100.00;63161.41;5044713;28;20052;-74
2024/01/14 03:00:54;;;;;;;19.08;2.15;;;;;;;-144.74;100.00;63161.41;5041307;28;20060;-74
2024/01/14 03:03:20;;;;;;;25.35;3.25;;;;;;;-144.74;100.00;63161.41;5043193;28;20081;-73
2024/01/14 03:05:45;;;;;;;19.33;2.45;;;;;;;-144.74;100.00;63161.41;5041183;28;20017;-73
2024/01/14 03:08:10;;;;;;;28.75;2.80;;;;;;;-144.74;100.00;63161.41;5042285;28;20491;-73
2024/01/14 03:10:36;;;;;;;30.67;2.75;;;;;;;-144.74;100.00;63161.41;5061948;28;20017;-73
2024/01/14 03:13:01;;;;;;;15.35;2.42;;;;;;;-144.74;100.00;63161.41;5052909;28;20043;-73
2024/01/14 03:15:26;;;;;;;23.05;3.42;;;;;;;-144.74;100.00;63161.41;5045153;28;20479;-73
2024/01/14 03:17:52;;;;;;;37.30;4.38;;;;;;;-144.74;100.00;63161.41;5063811;28;20045;-73
2024/01/14 03:20:17;;;;;;;17.08;2.80;;;;;;;-144.74;100.00;63161.41;5067808;28;20035;-73
2024/01/14 03:22:43;;;;;;;41.28;2.58;;;;;;;-144.74;100.00;63161.41;5037671;28;20115;-73
2024/01/14 03:25:08;;;;;;;35.97;2.97;;;;;;;-144.74;100.00;63161.41;5063876;28;20031;-74
2024/01/14 03:27:34;;;;;;;36.25;3.20;;;;;;;-144.74;100.00;63161.41;5062016;28;20029;-73
2024/01/14 03:29:59;;;;;;;29.95;3.05;;;;;;;-144.74;100.00;63161.41;5064424;28;20033;-73
2024/01/14 03:32:25;;;;;;;28.90;3.53;;;;;;;-144.74;100.00;63161.41;5044379;28;20156;-73
2024/01/14 03:34:50;;;;;;;39.13;4.07;;;;;;;-144.74;100.00;63161.41;5045869;28;20020;-73
2024/01/14 03:37:18;;;;;;;21.30;2.95;;;;;;;-144.74;100.00;63161.41;5047474;28;20504;-72
2024/01/14 03:39:43;;;;;;;27.98;3.78;;;;;;;-144.74;100.00;63161.41;5045735;28;20112;-73
2024/01/14 03:42:08;;;;;;;31.25;4.57;;;;;;;-144.74;100.00;63161.41;5040409;28;20121;-73
2024/01/14 03:44:34;;;;;;;31.20;2.92;;;;;;;-144.74;100.00;63161.41;5058991;28;20017;-74
2024/01/14 03:46:59;;;;;;;28.08;3.00;;;;;;;-144.74;100.00;63161.41;5036915;28;20033;-73
2024/01/14 03:49:24;;;;;;;21.67;2.92;;;;;;;-144.74;100.00;63161.41;5036127;28;20040;-73
2024/01/14 03:51:50;;;;;;;32.22;3.45;;;;;;;-144.74;100.00;63161.41;5049762;28;20494;-73
2024/01/14 03:54:15;;;;;;;42.80;4.45;;;;;;;-144.74;100.00;63161.41;5040239;28;20395;-73
2024/01/14 03:56:40;;;;;;;41.10;3.70;;;;;;;-144.74;100.00;63161.41;5036933;28;20065;-73
2024/01/14 03:59:06;;;;;;;23.42;3.17;;;;;;;-144.74;100.00;63161.41;5030763;28;20123;-74
2024/01/14 04:01:31;;;;;;;32.75;3.80;;;;;;;-144.74;100.00;63161.41;5030194;28;20045;-73
2024/01/14 04:03:56;;;;;;;29.05;4.10;;;;;;;-144.74;100.00;63161.41;5042122;28;20033;-73
2024/01/14 04:06:23;;;;;;;28.83;3.35;;;;;;;-144.74;100.00;63161.41;5063761;28;20041;-73
2024/01/14 04:08:48;;;;;;;44.35;6.47;;;;;;;-144.74;100.00;63161.41;5044862;28;20032;-74
2024/01/14 04:11:14;;;;;;;33.60;4.50;;;;;;;-144.74;100.00;63161.41;5061159;28;20138;-73
2024/01/14 04:13:39;;;;;;;30.25;3.55;;;;;;;-144.74;100.00;63161.41;5045142;28;20024;-73
2024/01/14 04:16:07;;;;;;;33.22;3.42;;;;;;;-144.74;100.00;63161.41;5067143;28;20117;-73
2024/01/14 04:18:33;;;;;;;36.10;5.65;;;;;;;-144.74;100.00;63161.41;5038541;28;20033;-73
2024/01/14 04:20:58;;;;;;;25.38;2.75;;;;;;;-144.74;100.00;63161.41;5042541;28;20096;-73
2024/01/14 04:23:23;;;;;;;24.17;3.78;;;;;;;-144.74;100.00;63161.41;5045420;28;20027;-74
2024/01/14 04:25:49;;;;;;;26.65;3.42;;;;;;;-144.74;100.00;63161.41;5048144;28;20032;-74
2024/01/14 04:28:14;;;;;;;32.33;3.95;;;;;;;-144.74;100.00;63161.41;5045349;28;20052;-73
2024/01/14 04:30:39;;;;;;;29.48;3.92;;;;;;;-144.74;100.00;63161.41;5037985;28;20017;-73
2024/01/14 04:33:05;;;;;;;33.40;4.65;;;;;;;-144.74;100.00;63161.41;5035791;28;20052;-73
2024/01/14 04:35:30;;;;;;;30.27;3.50;;;;;;;-144.74;100.00;63161.41;5063110;28;20079;-74
2024/01/14 04:37:55;;;;;;;22.92;3.95;;;;;;;-144.74;100.00;63161.41;5042031;28;20037;-74
2024/01/14 04:40:21;;;;;;;33.15;4.32;;;;;;;-144.74;100.00;63161.41;5035827;28;20028;-73
2024/01/14 04:42:46;;;;;;;34.85;3.47;;;;;;;-144.74;100.00;63161.41;5044087;28;20049;-73
2024/01/14 04:45:11;;;;;;;37.35;3.72;;;;;;;-144.74;100.00;63161.41;5043146;28;20032;-75
2024/01/14 04:47:37;;;;;;;27.08;3.88;;;;;;;-144.74;100.00;63161.41;5051897;28;20033;-74
2024/01/14 04:50:02;;;;;;;32.75;4.07;;;;;;;-144.74;100.00;63161.41;5047905;28;20025;-73
2024/01/14 04:52:31;;;;;;;24.13;2.75;;;;;;;-144.74;100.00;63161.41;5042514;28;20029;-72
2024/01/14 04:54:56;;;;;;;17.02;2.85;;;;;;;-144.74;100.00;63161.41;5054734;28;20551;-73
2024/01/14 04:57:21;;;;;;;28.35;3.28;;;;;;;-144.74;100.00;63161.41;5043132;28;20115;-74
2024/01/14 04:59:46;;;;;;;24.30;2.90;;;;;;;-144.74;100.00;63161.41;5039607;28;20059;-73
2024/01/14 05:02:12;;;;;;;27.23;2.75;;;;;;;-144.74;100.00;63161.41;5045674;28;20204;-73
2024/01/14 05:04:40;;;;;;;25.73;3.10;;;;;;;-144.74;100.00;63161.41;5068594;28;20028;-74
2024/01/14 05:07:05;;;;;;;38.55;3.58;;;;;;;-144.74;100.00;63161.41;5051411;28;20036;-74
2024/01/14 05:09:31;;;;;;;16.55;2.35;;;;;;;-144.74;100.00;63161.41;5069706;28;20043;-73
2024/01/14 05:11:56;;;;;;;24.40;2.90;;;;;;;-144.74;100.00;63161.41;5047621;28;20036;-74
2024/01/14 05:14:22;;;;;;;30.30;4.45;;;;;;;-144.74;100.00;63161.41;5042729;28;20115;-73
2024/01/14 05:16:47;;;;;;;41.15;4.35;;;;;;;-144.74;100.00;63161.41;5065734;28;20036;-74
2024/01/14 05:19:13;;;;;;;27.08;3.60;;;;;;;-144.74;100.00;63161.41;5040271;28;20040;-74
2024/01/14 05:21:38;;;;;;;22.73;3.78;;;;;;;-144.74;100.00;63161.41;5034695;28;20110;-73
2024/01/14 05:24:03;;;;;;;32.67;5.63;;;;;;;-144.74;100.00;63161.41;5054147;28;20036;-74
2024/01/14 05:26:29;;;;;;;28.65;3.13;;;;;;;-144.74;100.00;63161.41;5061405;28;20038;-73
2024/01/14 05:28:59;;;;;;;27.35;3.15;;;;;;;-144.74;100.00;63161.41;5037267;28;20119;-74
2024/01/14 05:31:24;;;;;;;35.70;3.83;;;;;;;-144.74;100.00;63161.41;5059862;28;20111;-74
2024/01/14 05:33:53;;;;;;;29.75;3.58;;;;;;;-144.74;100.00;63161.41;5070018;28;20103;-74
2024/01/14 05:36:19;;;;;;;34.38;3.33;;;;;;;-144.74;100.00;63161.41;5069471;28;20120;-73
2024/01/14 05:38:44;;;;;;;21.98;2.92;;;;;;;-144.74;100.00;63161.41;5036247;28;20107;-74
2024/01/14 05:41:12;;;;;;;30.92;3.78;;;;;;;-144.74;100.00;63161.41;5045294;28;20102;-74
2024/01/14 05:43:41;;;;;;;;;;;;;;;-144.74;100.00;63161.41;5041469;28;20025;-74
2024/01/14 05:46:06;;;;;;;19.15;3.05;;;;;;;-144.74;100.00;63161.41;5048696;28;19918;-74
2024/01/14 05:48:32;;;;;;;27.13;3.40;;;;;;;-144.74;100.00;63161.41;5046122;28;20028;-74
2024/01/14 05:50:57;;;;;;;25.02;3.45;;;;;;;-144.74;100.00;63161.41;5046063;28;20040;-74
2024/01/14 05:53:22;;;;;;;43.80;3.85;;;;;;;-144.74;100.00;63161.41;5051830;28;20111;-74
2024/01/14 05:55:50;;;;;;;32.88;2.83;;;;;;;-144.74;100.00;63161.41;5043584;28;20032;-73
2024/01/14 05:58:15;;;;;;;32.50;3.60;;;;;;;-144.74;100.00;63161.41;5036962;28;20067;-73
2024/01/14 06:00:41;;;;;;;27.05;3.30;;;;;;;-144.74;100.00;63161.41;5040126;28;20017;-73
2024/01/14 06:03:07;;;;;;;29.20;3.22;;;;;;;-144.74;100.00;63161.41;5028339;28;20030;-75
2024/01/14 06:05:32;;;;;;;24.92;3.17;;;;;;;-144.74;100.00;63161.41;5013071;28;20025;-74
2024/01/14 06:08:01;;;;;;;36.40;3.75;;;;;;;-144.74;100.00;63161.41;5054445;28;20108;-73
2024/01/14 06:10:29;;;;;;;35.08;4.50;;;;;;;-144.74;100.00;63161.41;5054507;28;20025;-74
2024/01/14 06:12:55;;;;;;;26.88;3.13;;;;;;;-144.74;100.00;63161.41;5052546;28;20036;-73
2024/01/14 06:15:20;;;;;;;23.42;2.88;;;;;;;-144.74;100.00;63161.41;5054374;28;20029;-73
2024/01/14 06:17:48;;;;;;;25.95;3.47;;;;;;;-144.74;100.00;63161.41;5053381;28;20475;-73
2024/01/14 06:20:14;;;;;;;27.10;3.85;;;;;;;-144.74;100.00;63161.41;5054144;28;20047;-74
2024/01/14 06:22:39;;;;;;;32.60;3.30;;;;;;;-144.74;100.00;63161.41;5053366;28;20365;-74
2024/01/14 06:25:05;;;;;;;40.55;3.88;;;;;;;-144.74;100.00;63161.41;5053535;28;20039;-75
2024/01/14 06:27:33;;;;;;;41.80;4.30;;;;;;;-144.74;100.00;63161.41;5053275;28;20037;-75
2024/01/14 06:30:00;;;;;;;27.40;4.65;;;;;;;-144.74;100.00;63161.41;5054237;28;20487;-74
2024/01/14 06:32:25;;;;;;;41.63;3.95;;;;;;;-144.74;100.00;63161.41;5070891;28;20447;-74
2024/01/14 06:34:50;;;;;;;32.28;4.00;;;;;;;-144.74;100.00;63161.41;5053677;28;20107;-74
2024/01/14 06:37:16;;;;;;;42.10;3.95;;;;;;;-144.74;100.00;63161.41;5052860;28;20039;-74
2024/01/14 06:39:41;;;;;;;44.80;5.90;;;;;;;-144.74;100.00;63161.41;5053600;28;20016;-74
2024/01/14 06:42:06;;;;;;;27.65;4.40;;;;;;;-144.74;100.00;63161.41;5070634;28;20032;-74
2024/01/14 06:44:38;;;;;;;37.33;4.20;;;;;;;-144.74;100.00;63161.41;5070426;28;20023;-74
2024/01/14 06:47:06;;;;;;;30.08;3.60;;;;;;;-144.74;100.00;63161.41;5053346;28;20096;-74
2024/01/14 06:49:31;;;;;;;25.98;4.20;;;;;;;-144.74;100.00;63161.41;5070968;28;20056;-75
2024/01/14 06:51:56;;;;;;;35.80;4.30;;;;;;;-144.74;100.00;63161.41;5052843;28;20313;-73
2024/01/14 06:54:22;;;;;;;36.17;3.58;;;;;;;-144.74;100.00;63161.41;5052972;28;20450;-73
2024/01/14 06:56:47;;;;;;;30.15;3.58;;;;;;;-144.74;100.00;63161.41;5053170;28;20028;-73
2024/01/14 06:59:17;;;;;;;33.22;4.03;;;;;;;-144.74;100.00;63161.41;5053427;28;20111;-74
2024/01/14 07:01:43;;;;;;;35.30;4.55;;;;;;;-144.74;100.00;63161.41;5052519;28;20033;-74
2024/01/14 07:04:08;;;;;;;38.72;3.75;;;;;;;-144.74;100.00;63161.41;5066168;28;20027;-73
2024/01/14 07:06:34;;;;;;;49.95;5.45;;;;;;;-144.74;100.00;63161.41;5052878;28;20499;-74
2024/01/14 07:08:59;;;;;;;28.02;3.85;;;;;;;-144.74;100.00;63161.41;5053396;28;20028;-73
2024/01/14 07:11:24;;;;;;;30.25;5.18;;;;;;;-144.74;100.00;63161.41;5052256;28;20049;-73
2024/01/14 07:13:50;;;;;;;35.58;4.32;;;;;;;-144.74;100.00;63161.41;5070882;28;20031;-74
2024/01/14 07:16:15;;;;;;;29.17;2.58;;;;;;;-144.74;100.00;63161.41;5052486;28;20028;-74
2024/01/14 07:18:41;;;;;;;33.78;4.22;;;;;;;-144.74;100.00;63161.41;5052833;28;20020;-75
2024/01/14 07:21:10;;;;;;;32.75;3.63;;;;;;;-144.74;100.00;63161.41;5070462;28;20127;-74
2024/01/14 07:23:37;;;;;;;36.60;3.50;;;;;;;-144.74;100.00;63161.41;5074098;28;20023;-74
2024/01/14 07:26:16;;;;;;;34.10;3.70;;;;;;;-144.74;100.00;63161.41;5059223;28;20033;-74
2024/01/14 07:28:41;;;;;;;32.58;4.65;;;;;;;-144.74;100.00;63161.41;5060133;28;20031;-73
2024/01/14 07:31:07;;;;;;;28.38;3.53;;;;;;;-144.74;100.00;63161.41;5059005;28;20108;-73
2024/01/14 07:33:35;;;;;;;50.45;3.75;;;;;;;-144.74;100.00;63161.41;5077506;28;20028;-74
2024/01/14 07:36:00;;;;;;;31.75;3.95;;;;;;;-144.74;100.00;63161.41;5059228;28;20033;-74
2024/01/14 07:38:26;;;;;;;29.92;3.40;;;;;;;-144.74;100.00;63161.41;5057165;28;20082;-74
2024/01/14 07:40:51;;;;;;;29.35;3.38;;;;;;;-144.74;100.00;63161.41;5059477;28;20044;-74
2024/01/14 07:43:17;;;;;;;35.33;3.97;;;;;;;-144.74;100.00;63161.41;5060728;28;20027;-74
2024/01/14 07:45:45;;;;;;;24.48;3.47;;;;;;;-144.74;100.00;63161.41;5077227;28;20047;-74
2024/01/14 07:48:13;;;;;;;35.08;3.95;;;;;;;-144.74;100.00;63161.41;5059582;28;20029;-74
2024/01/14 07:50:41;;;;;;;30.55;3.17;;;;;;;-144.74;100.00;63161.41;5059039;28;20073;-75
2024/01/14 07:53:07;;;;;;;25.33;3.67;;;;;;;-144.74;100.00;63161.41;5077192;28;20040;-73
2024/01/14 07:55:33;;;;;;;41.20;3.63;;;;;;;-144.74;100.00;63161.41;5057338;28;20017;-75
2024/01/14 07:57:58;;;;;;;29.83;3.10;;;;;;;-144.74;100.00;63161.41;5076936;28;20056;-74
2024/01/14 08:00:23;;;;;;;26.50;4.57;;;;;;;-144.74;100.00;63161.41;5059060;28;20035;-73
2024/01/14 08:02:49;;;;;;;28.77;2.95;;;;;;;-144.74;100.00;63161.41;5076752;28;20502;-73
2024/01/14 08:05:14;;;;;;;27.50;3.03;;;;;;;-144.74;100.00;63161.41;5059123;28;20029;-73
2024/01/14 08:07:40;;;;;;;34.63;3.30;;;;;;;-144.74;100.00;63161.41;5058659;28;20090;-73
2024/01/14 08:10:06;;;;;;;28.38;3.67;;;;;;;-144.74;100.00;63161.41;5059684;28;20360;-74
2024/01/14 08:12:31;;;;;;;22.05;2.67;;;;;;;-144.74;100.00;63161.41;5063017;28;20043;-73
2024/01/14 08:14:56;;;;;;;19.92;2.75;;;;;;;-144.74;100.00;63161.41;5058915;28;20032;-74
2024/01/14 08:17:22;;;;;;;18.58;3.55;;;;;;;-144.74;100.00;63161.41;5058014;28;20028;-75
2024/01/14 08:19:47;;;;;;;29.73;3.75;;;;;;;-144.74;100.00;63161.41;5077087;28;20044;-74
2024/01/14 08:22:17;;;;;;;28.80;2.53;;;;;;;-144.74;100.00;63161.41;5058675;28;20090;-74
2024/01/14 08:24:42;;;;;;;23.45;2.78;;;;;;;-144.74;100.00;63161.41;5059019;28;20051;-74
2024/01/14 08:27:08;;;;;;;30.10;3.38;;;;;;;-144.74;100.00;63161.41;5059037;28;20052;-73
2024/01/14 08:29:33;;;;;;;35.08;3.47;;;;;;;-144.74;100.00;63161.41;5059049;28;20028;-74
2024/01/14 08:31:59;;;;;;;25.02;2.88;;;;;;;-144.74;100.00;63161.41;5058650;28;20036;-74
2024/01/14 08:34:25;;;;;;;26.05;3.65;;;;;;;-144.74;100.00;63161.41;5057809;28;20020;-74
2024/01/14 08:36:50;;;;;;;31.08;3.45;;;;;;;-144.74;100.00;63161.41;5055342;28;20039;-74
2024/01/14 08:39:16;;;;;;;29.40;3.10;;;;;;;-144.74;100.00;63161.41;5055598;28;20108;-74
2024/01/14 08:41:41;;;;;;;35.45;4.07;;;;;;;-144.74;100.00;63161.41;5055292;28;20029;-75
2024/01/14 08:44:10;;;;;;;24.15;3.20;;;;;;;-144.74;100.00;63161.41;5073280;28;20020;-74
2024/01/14 08:46:39;;;;;;;28.20;3.17;;;;;;;-144.74;100.00;63161.41;5054509;28;20086;-74
2024/01/14 08:49:04;;;;;;;23.00;3.08;;;;;;;-144.74;100.00;63161.41;5055939;28;20024;-75
2024/01/14 08:51:30;;;;;;;27.40;3.72;;;;;;;-144.74;100.00;63161.41;5054779;28;20033;-75
2024/01/14 08:54:00;;;;;;;31.45;2.75;;;;;;;-144.74;100.00;63161.41;5055702;28;20021;-74
2024/01/14 08:56:28;;;;;;;24.48;2.80;;;;;;;-144.74;100.00;63161.41;5055469;28;20039;-75
2024/01/14 08:58:57;;;;;;;37.13;3.42;;;;;;;-144.74;100.00;63161.41;5055594;28;20084;-74
2024/01/14 09:01:23;;;;;;;22.10;3.10;;;;;;;-144.74;100.00;63161.41;5054639;28;20025;-74
2024/01/14 09:03:49;;;;;;;29.48;3.83;;;;;;;-144.74;100.00;63161.41;5055591;28;20012;-74
2024/01/14 09:06:15;;;;;;;19.00;3.65;;;;;;;-144.74;100.00;63161.41;5054816;28;20043;-74
2024/01/14 09:08:40;;;;;;;26.30;3.83;;;;;;;-144.74;100.00;63161.41;5055623;28;20016;-74
2024/01/14 09:11:07;;;;;;;22.75;3.70;;;;;;;-144.74;100.00;63161.41;5072692;28;20029;-75
2024/01/14 09:13:32;;;;;;;25.42;4.15;;;;;;;-144.74;100.00;63161.41;5071234;28;20078;-73
2024/01/14 09:15:57;;;;;;;22.70;3.70;;;;;;;-144.74;100.00;63161.41;5076913;28;20036;-73
2024/01/14 09:18:23;;;;;;;27.85;3.35;;;;;;;-144.74;100.00;63161.41;5056383;28;20029;-74
2024/01/14 09:20:48;;;;;;;34.15;5.00;;;;;;;-144.74;100.00;63161.41;5072628;28;20020;-74
2024/01/14 09:23:13;;;;;;;25.80;4.18;;;;;;;-144.74;100.00;63161.41;5054630;28;20024;-73
2024/01/14 09:25:39;;;;;;;22.38;3.15;;;;;;;-144.74;100.00;63161.41;5055212;28;20013;-73
2024/01/14 09:28:04;;;;;;;33.50;3.78;;;;;;;-144.74;100.00;63161.41;5055347;28;20062;-73
2024/01/14 09:30:29;;;;;;;19.40;2.88;;;;;;;-144.74;100.00;63161.41;5055301;28;20028;-72
2024/01/14 09:32:55;;;;;;;29.52;3.22;;;;;;;-144.74;100.00;63161.41;5053670;28;20032;-73
2024/01/14 09:35:20;;;;;;;26.92;3.58;;;;;;;-144.74;100.00;63161.41;5055013;28;20043;-72
2024/01/14 09:37:46;;;;;;;22.58;4.43;;;;;;;-144.74;100.00;63161.41;5054560;28;20051;-74
2024/01/14 09:40:11;;;;;;;35.30;5.15;;;;;;;-144.74;100.00;63161.41;5055049;28;20040;-74
2024/01/14 09:42:39;;;;;;;30.98;4.38;;;;;;;-144.74;100.00;63161.41;5053657;28;20407;-73
2024/01/14 09:45:05;;;;;;;30.10;4.28;;;;;;;-144.74;100.00;63161.41;5056549;28;20075;-73
2024/01/14 09:47:34;;;;;;;31.63;3.95;;;;;;;-144.74;100.00;63161.41;5053014;28;20040;-73
2024/01/14 09:50:00;;;;;;;19.67;4.50;;;;;;;-144.74;100.00;63161.41;5054782;28;20025;-73
2024/01/14 09:52:29;;;;;;;20.60;4.05;;;;;;;-144.74;100.00;63161.41;5055020;28;20039;-68
2024/01/14 09:54:54;;;;;;;33.53;4.28;;;;;;;-144.74;100.00;63161.41;5073629;28;20035;-68
2024/01/14 09:57:23;;;;;;;20.65;3.58;;;;;;;-144.74;100.00;63161.41;5055269;28;20032;-67
2024/01/14 09:59:50;;;;;;;18.15;3.08;;;;;;;-144.74;100.00;63161.41;5055377;28;20021;-67
2024/01/14 10:02:16;;;;;;;32.80;3.95;;;;;;;-144.74;100.00;63161.41;5055105;28;20036;-67
2024/01/14 10:04:42;;;;;;;32.08;3.45;;;;;;;-144.74;100.00;63161.41;5055638;28;20028;-68
2024/01/14 10:07:09;;;;;;;20.73;3.50;;;;;;;-144.74;100.00;63161.41;5054928;28;20039;-67
2024/01/14 10:09:35;;;;;;;24.83;3.22;;;;;;;-144.74;100.00;63161.41;5056021;28;20066;-69
2024/01/14 10:12:01;;;;;;;24.88;4.18;;;;;;;-144.74;100.00;63161.41;5072870;28;20029;-68
2024/01/14 10:14:27;;;;;;;26.52;4.50;;;;;;;-144.74;100.00;63161.41;5073439;28;20027;-68
2024/01/14 10:16:59;;;;;;;21.08;4.13;;;;;;;-144.74;100.00;63161.41;5054769;28;20062;-68
2024/01/14 10:19:25;;;;;;;19.48;4.30;;;;;;;-144.74;100.00;63161.41;5055154;28;20036;-68
2024/01/14 10:21:55;;;;;;;19.83;4.30;;;;;;;-144.74;100.00;63161.41;5072302;28;20044;-68
2024/01/14 10:24:21;;;;;;;17.48;3.88;;;;;;;-144.74;100.00;63161.41;5073063;28;20038;-68
2024/01/14 10:26:52;;;;;;;16.10;3.70;;;;;;;-144.74;100.00;63161.41;5053947;28;20036;-76
2024/01/14 10:29:19;;;;;;;19.40;3.17;;;;;;;-144.74;100.00;63161.41;5038061;28;20032;-76
2024/01/14 10:31:44;;;;;;;24.95;4.07;;;;;;;-144.74;100.00;63161.41;5053638;28;20105;-75
2024/01/14 10:34:09;;;;;;;24.15;4.45;;;;;;;-144.74;100.00;63161.41;5056152;28;20087;-75
2024/01/14 10:36:36;;;;;;;16.38;3.40;;;;;;;-144.74;100.00;63161.41;5048466;28;20119;-74
2024/01/14 10:39:03;;;;;;;22.63;5.05;;;;;;;-144.74;100.00;63161.41;5058261;28;20024;-75
2024/01/14 10:41:29;;;;;;;28.52;3.95;;;;;;;-144.74;100.00;63161.41;5053906;28;20036;-75
2024/01/14 10:43:54;;;;;;;22.45;3.20;;;;;;;-144.74;100.00;63161.41;5055881;28;20063;-75
2024/01/14 10:46:22;;;;;;;31.08;4.28;;;;;;;-144.74;100.00;63161.41;5053095;28;20028;-74
2024/01/14 10:48:59;;;;;;;33.85;2.58;;;;;;;-144.74;100.00;63161.41;5047889;28;20020;-76
2024/01/14 10:51:30;;;;;;;22.30;3.75;;;;;;;-144.74;100.00;63161.41;5052577;28;20029;-77
2024/01/14 10:54:11;;;;;;;21.50;3.20;;;;;;;-144.74;100.00;63161.41;5053824;28;20021;-75
2024/01/14 10:56:40;;;;;;;20.63;3.40;;;;;;;-144.74;100.00;63161.41;5052607;28;20115;-75
2024/01/14 10:59:08;;;;;;;30.92;5.03;;;;;;;-144.74;100.00;63161.41;5053394;28;20021;-76